Time;durP1;ratioP1;P1;durP2;ratioP2;P2;SDS_P1;SDS_P2;PMS_P1;PMS_P2;Temp;Humidity;BMP_temperature;BMP_pressure;BME280_temperature;BME280_humidity;BME280_pressure;Samples;Min_cycle;Max_cycle;Signal;HPM_P1;HPM_P2
2022/02/20 00:01:31;;;;;;;8.23;1.58;;;5.30;67.40;;;;;;4901340;29;20229;-79
2022/02/20 00:03:59;;;;;;;2.75;1.05;;;5.30;66.40;;;;;;4899172;29;20213;-79
2022/02/20 00:06:27;;;;;;;5.00;1.52;;;5.40;64.60;;;;;;4892320;29;20217;-80
2022/02/20 00:08:54;;;;;;;2.47;1.20;;;5.50;63.60;;;;;;4893261;29;20275;-79
2022/02/20 00:11:21;;;;;;;4.88;1.60;;;5.50;61.90;;;;;;4896010;29;20238;-78
2022/02/20 00:13:48;;;;;;;5.45;1.23;;;5.60;60.30;;;;;;4894517;29;20236;-79
2022/02/20 00:16:14;;;;;;;2.67;0.90;;;5.70;58.50;;;;;;4893329;29;20237;-79
2022/02/20 00:18:41;;;;;;;4.50;1.48;;;5.90;56.80;;;;;;4894124;29;20209;-78
2022/02/20 00:21:08;;;;;;;4.00;1.50;;;5.90;56.10;;;;;;4892960;29;20490;-80
2022/02/20 00:23:36;;;;;;;3.60;1.23;;;6.00;56.20;;;;;;4901394;29;20233;-78
2022/02/20 00:26:03;;;;;;;4.47;1.25;;;6.10;55.50;;;;;;4901957;29;20198;-78
2022/02/20 00:28:30;;;;;;;4.20;1.13;;;6.10;53.90;;;;;;4900807;29;20217;-78
2022/02/20 00:30:57;;;;;;;3.15;1.17;;;6.20;53.70;;;;;;4897681;29;20296;-78
2022/02/20 00:33:24;;;;;;;1.95;0.98;;;6.20;53.00;;;;;;4898988;29;20361;-77
2022/02/20 00:35:52;;;;;;;5.05;1.13;;;6.30;52.80;;;;;;4898929;29;20315;-79
2022/02/20 00:38:19;;;;;;;11.20;1.33;;;6.30;51.80;;;;;;4896469;29;20237;-78
2022/02/20 00:40:48;;;;;;;3.83;1.58;;;6.40;51.30;;;;;;4897383;29;20209;-79
2022/02/20 00:43:15;;;;;;;4.05;1.10;;;6.40;52.60;;;;;;4898189;29;20218;-78
2022/02/20 00:45:42;;;;;;;2.65;1.35;;;6.50;51.40;;;;;;4898259;29;20221;-79
2022/02/20 00:48:09;;;;;;;4.53;1.02;;;6.50;51.00;;;;;;4899879;29;20235;-78
2022/02/20 00:50:36;;;;;;;2.72;1.20;;;6.50;51.60;;;;;;4899582;29;20225;-79
2022/02/20 00:53:03;;;;;;;4.40;1.70;;;6.60;50.90;;;;;;4898648;29;20216;-79
2022/02/20 00:55:30;;;;;;;2.22;1.10;;;6.60;50.30;;;;;;4896451;29;20211;-78
2022/02/20 00:57:59;;;;;;;3.92;0.90;;;6.60;50.00;;;;;;4898921;29;20234;-79
2022/02/20 01:00:26;;;;;;;3.20;1.30;;;6.60;50.20;;;;;;4900286;29;20201;-80
2022/02/20 01:02:53;;;;;;;5.30;1.77;;;6.60;50.50;;;;;;4913032;23;20305;-76
2022/02/20 01:05:20;;;;;;;5.85;1.40;;;6.70;49.70;;;;;;4904977;29;20688;-77
2022/02/20 01:07:47;;;;;;;3.78;1.13;;;6.70;48.60;;;;;;4905305;29;20248;-75
2022/02/20 01:10:17;;;;;;;7.05;1.55;;;6.80;47.50;;;;;;4908078;29;20322;-74
2022/02/20 01:12:44;;;;;;;2.97;1.23;;;6.70;47.30;;;;;;4895883;29;20302;-75
2022/02/20 01:15:13;;;;;;;2.92;1.40;;;6.80;47.50;;;;;;4900030;29;20213;-73
2022/02/20 01:17:40;;;;;;;5.22;1.67;;;6.70;47.40;;;;;;4900306;29;20217;-74
2022/02/20 01:20:09;;;;;;;3.00;1.60;;;6.80;47.50;;;;;;4900241;29;20308;-73
2022/02/20 01:22:36;;;;;;;3.95;0.98;;;6.80;47.40;;;;;;4903208;29;20235;-75
2022/02/20 01:25:03;;;;;;;3.40;1.02;;;6.80;47.50;;;;;;4902589;29;20240;-75
2022/02/20 01:27:30;;;;;;;2.92;1.40;;;6.90;47.60;;;;;;4899233;29;20217;-75
2022/02/20 01:29:57;;;;;;;24.08;2.20;;;6.90;47.60;;;;;;4898653;29;20224;-73
2022/02/20 01:32:26;;;;;;;3.97;1.00;;;6.90;47.60;;;;;;4899743;29;20319;-77
2022/02/20 01:34:52;;;;;;;2.28;1.27;;;6.90;47.60;;;;;;4899628;29;20308;-75
2022/02/20 01:37:19;;;;;;;4.43;1.55;;;6.90;47.50;;;;;;4899391;29;20304;-75
2022/02/20 01:39:46;;;;;;;3.92;1.27;;;6.90;47.60;;;;;;4900976;29;20217;-75
2022/02/20 01:42:13;;;;;;;4.07;1.45;;;6.90;47.60;;;;;;4901336;29;20236;-74
2022/02/20 01:44:40;;;;;;;4.25;1.33;;;6.90;47.60;;;;;;4901298;29;20213;-75
2022/02/20 01:47:10;;;;;;;6.40;2.05;;;6.90;47.90;;;;;;4906308;29;20217;-74
2022/02/20 01:49:38;;;;;;;5.88;1.35;;;6.90;47.60;;;;;;4916256;29;20236;-74
2022/02/20 01:52:06;;;;;;;4.13;1.50;;;6.90;47.50;;;;;;4916152;29;20225;-74
2022/02/20 01:54:33;;;;;;;3.42;1.10;;;7.00;47.60;;;;;;4913180;29;20209;-75
2022/02/20 01:57:00;;;;;;;5.40;1.48;;;7.00;47.60;;;;;;4911759;29;20212;-74
2022/02/20 01:59:27;;;;;;;6.38;1.35;;;7.00;47.60;;;;;;4913890;29;20201;-74
2022/02/20 02:01:56;;;;;;;3.60;1.55;;;7.00;47.60;;;;;;4914998;29;20293;-74
2022/02/20 02:04:23;;;;;;;4.18;1.20;;;7.00;47.60;;;;;;4915928;29;20245;-75
2022/02/20 02:06:51;;;;;;;4.07;1.35;;;7.00;47.60;;;;;;4914691;29;20263;-74
2022/02/20 02:09:19;;;;;;;2.35;1.40;;;7.00;47.60;;;;;;4914848;29;20225;-73
2022/02/20 02:11:47;;;;;;;1.20;1.00;;;7.00;47.60;;;;;;4916238;29;20249;-74
2022/02/20 02:14:14;;;;;;;4.78;1.60;;;7.00;47.60;;;;;;4919137;29;20311;-74
2022/02/20 02:16:41;;;;;;;1.60;1.20;;;7.00;48.50;;;;;;4921019;29;20204;-74
2022/02/20 02:19:07;;;;;;;2.17;1.23;;;7.00;48.90;;;;;;4919046;29;20237;-74
2022/02/20 02:21:34;;;;;;;7.55;1.10;;;7.00;49.30;;;;;;4918302;29;20371;-75
2022/02/20 02:24:03;;;;;;;5.28;1.20;;;7.00;49.30;;;;;;4921157;29;20199;-74
2022/02/20 02:26:31;;;;;;;6.20;1.25;;;7.00;50.20;;;;;;4920195;29;20229;-76
2022/02/20 02:28:58;;;;;;;3.90;1.10;;;6.90;49.00;;;;;;4918894;29;20312;-76
2022/02/20 02:31:25;;;;;;;2.10;0.90;;;6.90;49.00;;;;;;4917917;29;20232;-75
2022/02/20 02:33:52;;;;;;;6.82;1.55;;;6.90;49.10;;;;;;4913450;29;20227;-76
2022/02/20 02:36:19;;;;;;;5.28;1.55;;;6.90;48.50;;;;;;4912866;29;20251;-75
2022/02/20 02:38:46;;;;;;;2.47;1.23;;;6.90;50.40;;;;;;4914729;29;20264;-74
2022/02/20 02:41:15;;;;;;;4.55;1.70;;;6.80;50.70;;;;;;4913467;29;20261;-75
2022/02/20 02:43:42;;;;;;;4.68;1.30;;;6.70;51.10;;;;;;4913763;29;20213;-73
2022/02/20 02:46:09;;;;;;;3.55;1.10;;;6.70;52.00;;;;;;4910776;29;20219;-74
2022/02/20 02:48:45;;;;;;;2.70;1.30;;;6.80;51.50;;;;;;4911703;29;20211;-73
2022/02/20 02:51:11;;;;;;;5.22;1.55;;;6.70;51.60;;;;;;4906692;29;20236;-74
2022/02/20 02:53:38;;;;;;;4.15;1.10;;;6.70;52.30;;;;;;4913641;29;20691;-74
2022/02/20 02:56:05;;;;;;;3.90;1.20;;;6.70;52.20;;;;;;4912925;29;20213;-74
2022/02/20 02:58:33;;;;;;;3.85;1.45;;;6.70;52.70;;;;;;4913806;29;20218;-73
2022/02/20 03:01:00;;;;;;;4.90;1.25;;;6.60;52.30;;;;;;4911220;29;20232;-74
2022/02/20 03:03:27;;;;;;;3.92;1.40;;;6.70;52.60;;;;;;4912356;29;20708;-73
2022/02/20 03:05:57;;;;;;;2.47;0.98;;;6.70;52.70;;;;;;4913025;29;20304;-74
2022/02/20 03:08:24;;;;;;;8.65;1.70;;;6.70;52.90;;;;;;4912554;29;20220;-75
2022/02/20 03:10:51;;;;;;;2.78;1.05;;;6.60;53.40;;;;;;4908439;29;20243;-73
2022/02/20 03:13:18;;;;;;;4.82;1.25;;;6.60;54.40;;;;;;4907825;29;20212;-73
2022/02/20 03:15:46;;;;;;;2.92;1.10;;;6.60;55.80;;;;;;4909619;29;20217;-74
2022/02/20 03:18:13;;;;;;;2.13;1.00;;;6.60;56.70;;;;;;4910850;29;20216;-75
2022/02/20 03:20:40;;;;;;;4.50;1.63;;;6.50;56.60;;;;;;4910481;29;20739;-72
2022/02/20 03:23:07;;;;;;;6.80;1.40;;;6.50;57.10;;;;;;4911615;29;20364;-73
2022/02/20 03:25:34;;;;;;;5.53;1.30;;;6.40;57.50;;;;;;4910310;29;20240;-74
2022/02/20 03:28:01;;;;;;;1.15;0.70;;;6.40;58.30;;;;;;4909502;29;20653;-74
2022/02/20 03:30:28;;;;;;;2.60;1.05;;;6.40;58.40;;;;;;4908525;29;20228;-74
2022/02/20 03:32:57;;;;;;;2.63;1.30;;;6.40;58.90;;;;;;4913894;29;20292;-73
2022/02/20 03:35:24;;;;;;;1.33;0.95;;;6.30;59.20;;;;;;4912192;29;20217;-73
2022/02/20 03:37:51;;;;;;;1.20;0.80;;;6.40;59.40;;;;;;4912956;29;20249;-74
2022/02/20 03:40:18;;;;;;;1.63;0.80;;;6.40;59.80;;;;;;4915679;29;20217;-75
2022/02/20 03:42:45;;;;;;;1.80;1.05;;;6.30;60.20;;;;;;4909842;29;20251;-74
2022/02/20 03:45:12;;;;;;;3.42;1.20;;;6.20;61.50;;;;;;4906415;29;20205;-74
2022/02/20 03:47:39;;;;;;;1.58;0.90;;;6.20;62.60;;;;;;4910721;29;20245;-73
2022/02/20 03:50:08;;;;;;;1.88;0.90;;;6.20;63.40;;;;;;4910661;29;20235;-75
2022/02/20 03:52:36;;;;;;;2.72;0.95;;;6.20;63.20;;;;;;4910196;29;20235;-72
2022/02/20 03:55:04;;;;;;;4.90;0.90;;;6.20;62.80;;;;;;4909051;29;20244;-74
2022/02/20 03:57:32;;;;;;;2.00;1.10;;;6.20;62.80;;;;;;4908892;29;20213;-74
2022/02/20 03:59:59;;;;;;;3.80;1.08;;;6.20;63.30;;;;;;4908498;29;20228;-74
2022/02/20 04:02:27;;;;;;;2.40;0.60;;;6.20;63.20;;;;;;4907143;29;20752;-75
2022/02/20 04:04:54;;;;;;;5.45;1.10;;;6.20;62.70;;;;;;4909144;29;20216;-74
2022/02/20 04:07:22;;;;;;;2.45;1.17;;;6.30;62.20;;;;;;4910553;29;20299;-74
2022/02/20 04:09:49;;;;;;;2.00;1.15;;;6.40;61.80;;;;;;4911949;29;20296;-73
2022/02/20 04:12:17;;;;;;;2.17;0.80;;;6.40;61.20;;;;;;4910635;29;20740;-74
2022/02/20 04:14:44;;;;;;;3.53;0.95;;;6.40;61.20;;;;;;4912081;29;20231;-74
2022/02/20 04:17:10;;;;;;;7.22;1.20;;;6.50;61.10;;;;;;4910263;29;20253;-73
2022/02/20 04:19:37;;;;;;;6.18;1.10;;;6.40;61.10;;;;;;4908946;29;20241;-75
2022/02/20 04:22:04;;;;;;;2.38;1.30;;;6.50;61.10;;;;;;4908218;29;20247;-73
2022/02/20 04:24:33;;;;;;;4.75;1.10;;;6.50;61.10;;;;;;4905898;29;20217;-74
2022/02/20 04:26:59;;;;;;;1.67;0.73;;;6.50;61.10;;;;;;4904180;29;20243;-72
2022/02/20 04:29:27;;;;;;;1.95;0.90;;;6.60;61.10;;;;;;4908464;29;20422;-73
2022/02/20 04:31:53;;;;;;;1.88;0.80;;;6.60;61.00;;;;;;4915700;29;20264;-75
2022/02/20 04:34:20;;;;;;;1.30;0.73;;;6.60;60.60;;;;;;4914020;29;20488;-76
2022/02/20 04:36:47;;;;;;;2.90;0.77;;;6.60;60.90;;;;;;4912211;29;20280;-75
2022/02/20 04:39:14;;;;;;;1.00;0.70;;;6.60;60.30;;;;;;4911970;29;20283;-76
2022/02/20 04:41:42;;;;;;;0.82;0.55;;;6.70;60.40;;;;;;4902367;29;20297;-75
2022/02/20 04:44:09;;;;;;;2.35;1.10;;;6.70;60.20;;;;;;4911658;29;20209;-74
2022/02/20 04:46:36;;;;;;;2.60;1.10;;;6.70;60.30;;;;;;4911840;29;20277;-75
2022/02/20 04:49:04;;;;;;;3.40;0.98;;;6.70;60.80;;;;;;4915438;29;20213;-75
2022/02/20 04:51:32;;;;;;;0.88;0.65;;;6.60;61.20;;;;;;4916520;29;20242;-74
2022/02/20 04:53:59;;;;;;;2.72;0.95;;;6.60;61.30;;;;;;4910029;29;20201;-76
2022/02/20 04:56:26;;;;;;;2.40;0.90;;;6.60;61.70;;;;;;4911818;29;20217;-75
2022/02/20 04:58:54;;;;;;;5.38;1.05;;;6.60;61.50;;;;;;4908707;29;20206;-76
2022/02/20 05:01:22;;;;;;;1.42;0.60;;;6.70;61.70;;;;;;4903010;29;20317;-76
2022/02/20 05:03:49;;;;;;;4.55;1.35;;;6.70;61.30;;;;;;4909369;29;20217;-75
2022/02/20 05:06:16;;;;;;;2.17;0.90;;;6.70;61.50;;;;;;4902062;29;20229;-76
2022/02/20 05:08:43;;;;;;;2.47;0.80;;;6.70;61.80;;;;;;4902272;29;20224;-76
2022/02/20 05:11:10;;;;;;;2.25;0.55;;;6.70;62.20;;;;;;4899928;29;20243;-73
2022/02/20 05:13:37;;;;;;;2.05;0.93;;;6.70;62.10;;;;;;4905962;29;20268;-73
2022/02/20 05:16:06;;;;;;;1.27;0.57;;;6.70;61.80;;;;;;4901569;29;20243;-74
2022/02/20 05:18:33;;;;;;;5.05;1.00;;;6.70;61.30;;;;;;4905488;29;20216;-71
2022/02/20 05:21:00;;;;;;;1.38;1.02;;;6.80;61.80;;;;;;4905649;29;20224;-73
2022/02/20 05:23:26;;;;;;;1.17;0.82;;;6.80;61.40;;;;;;4906792;29;20326;-73
2022/02/20 05:25:53;;;;;;;0.90;0.57;;;6.80;61.40;;;;;;4905611;29;20217;-73
2022/02/20 05:28:20;;;;;;;2.45;0.77;;;6.80;61.10;;;;;;4905288;29;20219;-74
2022/02/20 05:30:47;;;;;;;1.02;0.70;;;6.80;61.20;;;;;;4903589;29;20271;-76
2022/02/20 05:33:15;;;;;;;2.20;1.33;;;6.90;61.00;;;;;;4901088;29;20648;-74
2022/02/20 05:35:42;;;;;;;0.88;0.60;;;6.90;60.50;;;;;;4901247;29;20272;-75
2022/02/20 05:38:10;;;;;;;3.33;1.00;;;6.90;60.30;;;;;;4901385;29;20274;-75
2022/02/20 05:40:38;;;;;;;0.93;0.70;;;6.90;60.00;;;;;;4903202;29;20207;-73
2022/02/20 05:43:05;;;;;;;4.45;0.90;;;6.90;60.20;;;;;;4910125;29;20264;-74
2022/02/20 05:45:32;;;;;;;2.03;0.65;;;6.90;60.70;;;;;;4912715;29;20249;-75
2022/02/20 05:47:59;;;;;;;1.58;0.80;;;6.90;60.60;;;;;;4911109;29;20307;-75
2022/02/20 05:50:27;;;;;;;3.45;1.35;;;6.90;60.80;;;;;;4914847;29;20233;-73
2022/02/20 05:52:54;;;;;;;1.77;0.82;;;6.90;61.30;;;;;;4911505;29;20220;-74
2022/02/20 05:55:21;;;;;;;2.15;0.80;;;6.90;61.50;;;;;;4912999;29;20228;-74
2022/02/20 05:57:50;;;;;;;0.80;0.65;;;6.90;61.50;;;;;;4909136;29;20212;-75
2022/02/20 06:00:19;;;;;;;2.85;0.55;;;6.90;61.60;;;;;;4911205;29;20282;-75
2022/02/20 06:02:46;;;;;;;1.27;0.90;;;6.90;61.50;;;;;;4910485;29;20309;-74
2022/02/20 06:05:13;;;;;;;0.82;0.68;;;6.90;61.80;;;;;;4902056;29;20213;-74
2022/02/20 06:07:42;;;;;;;2.13;0.82;;;6.90;61.90;;;;;;4903482;29;20300;-74
2022/02/20 06:10:10;;;;;;;1.20;0.65;;;6.90;61.50;;;;;;4902954;29;20289;-76
2022/02/20 06:12:37;;;;;;;1.30;0.60;;;6.90;62.00;;;;;;4904193;29;20232;-74
2022/02/20 06:15:05;;;;;;;0.95;0.50;;;6.90;61.60;;;;;;4906268;29;20213;-74
2022/02/20 06:17:32;;;;;;;1.50;0.60;;;6.90;61.50;;;;;;4916262;29;20222;-75
2022/02/20 06:19:59;;;;;;;1.27;0.60;;;6.90;61.50;;;;;;4917891;29;20239;-73
2022/02/20 06:22:26;;;;;;;1.70;0.55;;;6.90;61.50;;;;;;4916844;29;20271;-73
2022/02/20 06:24:54;;;;;;;0.77;0.60;;;6.80;61.10;;;;;;4910527;29;20234;-73
2022/02/20 06:27:21;;;;;;;1.55;0.57;;;6.90;61.10;;;;;;4898859;29;20307;-72
2022/02/20 06:29:48;;;;;;;1.48;0.40;;;6.80;61.10;;;;;;4898084;29;20209;-73
2022/02/20 06:32:15;;;;;;;1.40;0.52;;;6.90;61.20;;;;;;4897769;29;20340;-73
2022/02/20 06:34:42;;;;;;;2.95;0.43;;;6.80;61.00;;;;;;4897625;29;20696;-73
2022/02/20 06:37:09;;;;;;;1.35;0.77;;;6.90;60.90;;;;;;4897601;29;20346;-73
2022/02/20 06:39:37;;;;;;;2.65;0.60;;;6.90;60.90;;;;;;4897860;29;20230;-75
2022/02/20 06:42:06;;;;;;;1.40;0.55;;;6.80;60.90;;;;;;4898467;29;20264;-73
2022/02/20 06:44:33;;;;;;;0.45;0.45;;;6.90;60.70;;;;;;4899098;29;20315;-74
2022/02/20 06:47:00;;;;;;;3.15;0.60;;;6.90;60.10;;;;;;4899169;29;20577;-73
2022/02/20 06:49:27;;;;;;;1.25;0.40;;;6.90;60.30;;;;;;4898861;29;20213;-73
2022/02/20 06:51:54;;;;;;;1.42;0.70;;;6.90;60.10;;;;;;4899314;29;20257;-73
2022/02/20 06:54:20;;;;;;;0.40;0.40;;;7.00;59.90;;;;;;4898967;29;20212;-74
2022/02/20 06:56:47;;;;;;;1.42;0.45;;;7.00;59.70;;;;;;4897890;29;20216;-73
2022/02/20 06:59:16;;;;;;;1.75;0.60;;;7.00;59.10;;;;;;4901363;29;20223;-74
2022/02/20 07:01:42;;;;;;;0.73;0.50;;;7.00;59.10;;;;;;4900695;29;20320;-73
2022/02/20 07:04:11;;;;;;;0.50;0.50;;;7.00;59.30;;;;;;4900066;29;20625;-73
2022/02/20 07:06:38;;;;;;;2.70;0.70;;;7.10;58.90;;;;;;4900983;29;20673;-73
2022/02/20 07:09:05;;;;;;;0.85;0.52;;;7.10;58.60;;;;;;4901557;29;20654;-75
2022/02/20 07:11:32;;;;;;;0.77;0.40;;;7.10;58.50;;;;;;4900799;29;20670;-73
2022/02/20 07:13:59;;;;;;;0.40;0.40;;;7.20;58.20;;;;;;4901164;29;20220;-74
2022/02/20 07:16:27;;;;;;;1.05;0.30;;;7.20;57.90;;;;;;4900761;29;20219;-73
2022/02/20 07:18:55;;;;;;;3.25;0.60;;;7.30;57.30;;;;;;4900317;29;20213;-72
2022/02/20 07:21:22;;;;;;;0.50;0.40;;;7.30;57.30;;;;;;4903685;29;20233;-74
2022/02/20 07:23:49;;;;;;;0.95;0.45;;;7.30;57.30;;;;;;4907061;29;20249;-79
2022/02/20 07:26:16;;;;;;;1.05;0.40;;;7.40;57.40;;;;;;4903637;29;20224;-73
2022/02/20 07:28:42;;;;;;;0.93;0.40;;;7.40;57.40;;;;;;4907368;29;20227;-73
2022/02/20 07:31:09;;;;;;;1.38;0.65;;;7.50;57.50;;;;;;4903281;29;20232;-74
2022/02/20 07:33:38;;;;;;;0.95;0.50;;;7.50;57.50;;;;;;4900295;29;20218;-73
2022/02/20 07:36:05;;;;;;;1.25;0.50;;;7.60;57.60;;;;;;4899430;29;20211;-73
2022/02/20 07:38:32;;;;;;;0.70;0.50;;;7.70;57.70;;;;;;4899712;29;20580;-73
2022/02/20 07:40:59;;;;;;;1.85;0.50;;;7.70;57.30;;;;;;4899518;29;20601;-73
2022/02/20 07:43:26;;;;;;;0.88;0.57;;;7.70;57.70;;;;;;4900336;29;20237;-74
2022/02/20 07:45:54;;;;;;;2.15;0.60;;;7.80;57.70;;;;;;4900074;29;20221;-73
2022/02/20 07:48:21;;;;;;;0.80;0.50;;;7.80;57.80;;;;;;4900364;29;20345;-73
2022/02/20 07:50:49;;;;;;;1.02;0.65;;;7.80;57.80;;;;;;4900221;29;20233;-73
2022/02/20 07:53:16;;;;;;;0.75;0.60;;;7.70;57.70;;;;;;4900434;29;20223;-73
2022/02/20 07:55:43;;;;;;;1.30;0.63;;;7.80;57.80;;;;;;4901226;29;20203;-74
2022/02/20 07:58:11;;;;;;;1.55;0.50;;;7.80;58.40;;;;;;4907242;29;20293;-73
2022/02/20 08:00:39;;;;;;;2.22;0.80;;;7.90;57.60;;;;;;4900504;29;20578;-72
2022/02/20 08:03:08;;;;;;;1.92;0.52;;;7.90;56.80;;;;;;4899736;29;20246;-73
2022/02/20 08:05:34;;;;;;;1.48;0.50;;;8.00;56.40;;;;;;4899593;29;20372;-73
2022/02/20 08:08:03;;;;;;;0.90;0.65;;;8.10;55.70;;;;;;4900126;29;20309;-73
2022/02/20 08:10:29;;;;;;;1.40;0.80;;;8.20;55.30;;;;;;4905306;29;20235;-73
2022/02/20 08:12:56;;;;;;;3.53;0.93;;;8.20;54.50;;;;;;4906821;29;20231;-74
2022/02/20 08:15:24;;;;;;;0.95;0.70;;;8.30;54.70;;;;;;4906564;29;20214;-74
2022/02/20 08:17:51;;;;;;;0.90;0.70;;;8.30;54.30;;;;;;4916899;29;20208;-73
2022/02/20 08:20:18;;;;;;;1.83;0.73;;;8.40;53.60;;;;;;4909194;29;20213;-74
2022/02/20 08:22:46;;;;;;;0.60;0.57;;;8.40;53.60;;;;;;4916685;29;20299;-74
2022/02/20 08:25:14;;;;;;;2.10;0.88;;;8.50;53.10;;;;;;4917917;29;20235;-73
2022/02/20 08:27:42;;;;;;;2.65;0.45;;;8.50;53.20;;;;;;4911137;29;20260;-74
2022/02/20 08:30:11;;;;;;;1.40;0.50;;;8.50;52.60;;;;;;4906704;29;20216;-74
2022/02/20 08:32:38;;;;;;;0.80;0.80;;;8.40;52.60;;;;;;4907156;29;20301;-76
2022/02/20 08:35:08;;;;;;;0.90;0.47;;;8.50;52.60;;;;;;4907886;29;20256;-74
2022/02/20 08:37:35;;;;;;;0.95;0.52;;;8.60;52.20;;;;;;4909218;29;20283;-74
2022/02/20 08:40:04;;;;;;;0.75;0.60;;;8.60;51.70;;;;;;4911175;29;20214;-73
2022/02/20 08:42:32;;;;;;;0.82;0.70;;;8.60;51.70;;;;;;4910512;29;20262;-74
2022/02/20 08:44:59;;;;;;;1.17;0.43;;;8.60;51.80;;;;;;4908959;29;20646;-73
2022/02/20 08:47:26;;;;;;;0.88;0.68;;;8.60;51.90;;;;;;4908042;29;20240;-74
2022/02/20 08:49:53;;;;;;;2.47;0.75;;;8.60;51.60;;;;;;4904964;29;20212;-74
2022/02/20 08:52:21;;;;;;;1.50;0.60;;;8.60;51.40;;;;;;4903746;29;20238;-75
2022/02/20 08:54:48;;;;;;;1.23;0.50;;;8.60;51.70;;;;;;4903323;29;20209;-74
2022/02/20 08:57:15;;;;;;;2.65;0.50;;;8.60;51.50;;;;;;4904332;29;20220;-75
2022/02/20 08:59:44;;;;;;;0.70;0.50;;;8.60;51.50;;;;;;4905768;29;20225;-74
2022/02/20 09:02:12;;;;;;;1.30;0.60;;;8.70;51.70;;;;;;4905696;29;20238;-76
2022/02/20 09:04:39;;;;;;;0.50;0.45;;;8.70;51.40;;;;;;4906431;29;20247;-76
2022/02/20 09:07:07;;;;;;;0.90;0.60;;;8.70;51.50;;;;;;4907778;29;20246;-76
2022/02/20 09:09:35;;;;;;;0.90;0.70;;;8.70;51.30;;;;;;4908950;29;20234;-75
2022/02/20 09:12:04;;;;;;;0.60;0.40;;;8.70;51.30;;;;;;4915854;29;20273;-76
2022/02/20 09:14:31;;;;;;;0.50;0.40;;;8.80;51.00;;;;;;4914681;29;20216;-73
2022/02/20 09:17:00;;;;;;;1.13;0.70;;;8.70;51.30;;;;;;4915125;29;20217;-74
2022/02/20 09:19:27;;;;;;;0.68;0.50;;;8.70;51.40;;;;;;4904514;29;20214;-76
2022/02/20 09:21:54;;;;;;;1.50;0.60;;;8.70;51.30;;;;;;4902959;29;20233;-74
2022/02/20 09:24:22;;;;;;;0.52;0.30;;;8.70;51.60;;;;;;4903263;29;20311;-73
2022/02/20 09:26:50;;;;;;;0.82;0.43;;;8.60;52.10;;;;;;4912151;29;20306;-74
2022/02/20 09:29:18;;;;;;;0.50;0.50;;;8.60;51.90;;;;;;4916849;29;20273;-74
2022/02/20 09:31:45;;;;;;;1.65;0.43;;;8.70;52.00;;;;;;4917197;29;20232;-74
2022/02/20 09:34:14;;;;;;;3.90;1.08;;;8.70;51.80;;;;;;4916948;29;20207;-74
2022/02/20 09:36:41;;;;;;;1.10;0.63;;;8.70;51.70;;;;;;4915322;29;20232;-75
2022/02/20 09:39:09;;;;;;;5.65;0.68;;;8.70;51.70;;;;;;4913006;29;20208;-75
2022/02/20 09:41:36;;;;;;;0.60;0.50;;;8.70;51.50;;;;;;4913428;29;20230;-75
2022/02/20 09:44:05;;;;;;;0.88;0.50;;;8.80;51.20;;;;;;4904932;29;20230;-77
2022/02/20 09:46:33;;;;;;;0.75;0.65;;;8.90;51.00;;;;;;4905126;29;20590;-75
2022/02/20 09:49:00;;;;;;;1.13;0.60;;;9.00;50.60;;;;;;4908565;29;20216;-77
2022/02/20 09:51:30;;;;;;;1.23;0.60;;;9.00;50.90;;;;;;4909109;29;20306;-76
2022/02/20 09:53:58;;;;;;;0.50;0.40;;;9.00;50.70;;;;;;4906176;29;20218;-77
2022/02/20 09:56:25;;;;;;;0.70;0.40;;;9.10;50.80;;;;;;4905754;29;20210;-77
2022/02/20 09:58:53;;;;;;;0.77;0.73;;;9.10;50.00;;;;;;4905228;29;20216;-77
2022/02/20 10:01:20;;;;;;;0.68;0.68;;;9.10;50.30;;;;;;4904678;29;20300;-75
2022/02/20 10:03:48;;;;;;;3.08;1.30;;;9.20;49.50;;;;;;4906304;29;20319;-75
2022/02/20 10:06:19;;;;;;;0.40;0.40;;;9.30;50.10;;;;;;4907375;29;20204;-76
2022/02/20 10:08:49;;;;;;;0.55;0.40;;;9.30;49.60;;;;;;4907693;29;20243;-76
2022/02/20 10:11:19;;;;;;;0.50;0.50;;;9.40;49.70;;;;;;4903666;29;20274;-74
2022/02/20 10:13:48;;;;;;;0.63;0.47;;;9.30;49.60;;;;;;4903354;29;20244;-73
2022/02/20 10:16:21;;;;;;;0.95;0.70;;;9.30;49.60;;;;;;4903185;29;20209;-75
2022/02/20 10:18:51;;;;;;;1.02;0.70;;;9.40;49.70;;;;;;4905147;29;20246;-74
2022/02/20 10:21:20;;;;;;;0.80;0.63;;;9.50;49.70;;;;;;4920618;29;20290;-74
2022/02/20 10:23:50;;;;;;;1.25;0.65;;;9.60;49.90;;;;;;4922079;29;20225;-74
2022/02/20 10:26:19;;;;;;;1.38;0.80;;;9.70;50.00;;;;;;4920207;29;20209;-77
2022/02/20 10:29:00;;;;;;;2.05;0.52;;;9.80;49.50;;;;;;4902670;29;20593;-76
2022/02/20 10:31:41;;;;;;;0.82;0.60;;;9.80;49.60;;;;;;4901105;29;20234;-76
2022/02/20 10:34:10;;;;;;;1.25;0.90;;;9.80;49.70;;;;;;4909971;29;20218;-77
2022/02/20 10:36:48;;;;;;;4.38;0.60;;;9.90;49.30;;;;;;4906542;29;20223;-75
2022/02/20 10:39:21;;;;;;;0.50;0.50;;;9.90;49.30;;;;;;4908520;29;20221;-77
2022/02/20 10:42:03;;;;;;;0.88;0.75;;;9.80;49.50;;;;;;4914213;29;20314;-76
2022/02/20 10:44:30;;;;;;;2.03;0.70;;;9.90;50.20;;;;;;4919456;29;20267;-75
2022/02/20 10:47:15;;;;;;;1.85;0.52;;;9.90;49.30;;;;;;4917274;29;20251;-76
2022/02/20 10:49:42;;;;;;;0.93;0.60;;;9.90;49.20;;;;;;4907393;29;20213;-76
2022/02/20 10:52:21;;;;;;;0.93;0.50;;;9.90;49.50;;;;;;4904610;29;20279;-77
2022/02/20 10:55:09;;;;;;;0.80;0.50;;;9.90;49.30;;;;;;4904921;29;20305;-76
2022/02/20 10:57:38;;;;;;;0.88;0.70;;;9.90;49.50;;;;;;4905439;29;20206;-76
2022/02/20 11:00:12;;;;;;;0.93;0.60;;;10.00;48.30;;;;;;4904401;29;20258;-75
2022/02/20 11:02:39;;;;;;;1.60;0.70;;;10.00;47.90;;;;;;4904127;29;20253;-75
2022/02/20 11:05:07;;;;;;;2.40;0.73;;;10.10;48.10;;;;;;4905887;29;20241;-74
2022/02/20 11:07:37;;;;;;;1.98;0.80;;;10.00;48.20;;;;;;4905982;29;20268;-77
2022/02/20 11:10:07;;;;;;;1.20;0.50;;;10.00;48.80;;;;;;4906557;29;20680;-77
2022/02/20 11:12:36;;;;;;;2.00;0.68;;;10.00;48.80;;;;;;4906340;29;20234;-76
2022/02/20 11:15:05;;;;;;;1.13;0.70;;;10.00;49.10;;;;;;4908370;29;20217;-75
2022/02/20 11:17:33;;;;;;;1.33;1.00;;;10.00;49.20;;;;;;4911749;29;20237;-74
2022/02/20 11:20:01;;;;;;;1.13;0.68;;;10.00;49.20;;;;;;4915649;29;20219;-75
2022/02/20 11:22:36;;;;;;;1.38;0.65;;;10.00;49.20;;;;;;4916265;29;20222;-77
2022/02/20 11:25:05;;;;;;;0.60;0.60;;;10.00;49.90;;;;;;4920121;29;20240;-74
2022/02/20 11:27:35;;;;;;;0.70;0.60;;;10.00;49.20;;;;;;4907654;29;20242;-75
2022/02/20 11:30:02;;;;;;;0.85;0.70;;;10.00;49.20;;;;;;4904782;29;20233;-73
2022/02/20 11:32:29;;;;;;;1.17;0.93;;;10.00;49.20;;;;;;4904401;29;20239;-74
2022/02/20 11:34:57;;;;;;;0.75;0.75;;;10.10;49.30;;;;;;4904268;29;20206;-75
2022/02/20 11:37:23;;;;;;;0.65;0.50;;;10.00;49.20;;;;;;4905252;29;20212;-75
2022/02/20 11:40:02;;;;;;;1.15;0.50;;;10.00;49.20;;;;;;4908458;29;20212;-75
2022/02/20 11:42:29;;;;;;;2.90;0.60;;;10.00;49.20;;;;;;4911392;29;20290;-75
2022/02/20 11:45:05;;;;;;;1.17;0.45;;;10.00;49.20;;;;;;4903943;29;20225;-76
2022/02/20 11:47:40;;;;;;;0.73;0.45;;;10.00;49.20;;;;;;4903200;29;20302;-76
2022/02/20 11:50:33;;;;;;;1.95;1.05;;;9.90;50.10;;;;;;4904865;29;20207;-75
2022/02/20 11:53:02;;;;;;;1.20;0.60;;;10.00;49.20;;;;;;4886561;29;20228;-73
2022/02/20 11:55:32;;;;;;;1.15;0.70;;;10.10;49.30;;;;;;4883737;29;20711;-74
2022/02/20 11:58:23;;;;;;;1.15;0.73;;;10.10;49.30;;;;;;4901430;29;20212;-74
2022/02/20 12:01:08;;;;;;;0.70;0.70;;;10.10;49.30;;;;;;4906074;29;20212;-74
2022/02/20 12:04:05;;;;;;;1.05;0.60;;;10.10;49.30;;;;;;4908218;29;20214;-74
2022/02/20 12:06:38;;;;;;;1.25;0.80;;;10.10;49.30;;;;;;4904621;29;20215;-75
2022/02/20 12:09:24;;;;;;;1.00;0.50;;;10.10;49.30;;;;;;4903981;29;20200;-75
2022/02/20 12:11:51;;;;;;;0.90;0.80;;;10.20;49.40;;;;;;4905127;29;20239;-74
2022/02/20 12:14:22;;;;;;;0.85;0.60;;;10.20;49.40;;;;;;4903481;29;20220;-73
2022/02/20 12:16:52;;;;;;;3.25;0.90;;;10.20;49.40;;;;;;4903897;29;20210;-73
2022/02/20 12:19:22;;;;;;;1.77;0.98;;;10.30;49.50;;;;;;4905514;29;20219;-76
2022/02/20 12:21:58;;;;;;;1.15;0.75;;;10.40;49.60;;;;;;4902290;29;20251;-75
2022/02/20 12:24:26;;;;;;;0.98;0.70;;;10.40;49.00;;;;;;4900872;29;20223;-75
2022/02/20 12:26:55;;;;;;;3.80;0.82;;;10.40;49.00;;;;;;4901170;29;20212;-75
2022/02/20 12:29:25;;;;;;;1.98;0.75;;;10.50;49.40;;;;;;4900757;29;20208;-78
2022/02/20 12:32:10;;;;;;;2.42;0.75;;;10.60;48.70;;;;;;4901315;29;20231;-75
2022/02/20 12:35:12;;;;;;;1.35;0.85;;;10.60;48.80;;;;;;4901774;29;20216;-75
2022/02/20 12:37:41;;;;;;;1.88;0.75;;;10.60;49.00;;;;;;4901426;29;20233;-74
2022/02/20 12:40:10;;;;;;;1.58;1.10;;;10.70;48.60;;;;;;4901450;29;20309;-76
2022/02/20 12:42:40;;;;;;;1.00;0.68;;;10.50;49.60;;;;;;4911761;29;20315;-77
2022/02/20 12:45:11;;;;;;;2.25;0.98;;;10.50;49.70;;;;;;4910885;29;20553;-75
2022/02/20 12:47:41;;;;;;;1.38;0.68;;;10.50;49.70;;;;;;4910037;29;20643;-76
2022/02/20 12:50:10;;;;;;;1.42;0.73;;;10.50;50.40;;;;;;4909077;29;20208;-77
2022/02/20 12:52:39;;;;;;;3.08;1.10;;;10.50;49.70;;;;;;4907615;29;20239;-77
2022/02/20 12:55:08;;;;;;;1.77;1.27;;;10.50;49.70;;;;;;4909465;29;20295;-77
2022/02/20 12:57:37;;;;;;;1.75;0.80;;;10.40;49.60;;;;;;4910448;29;20250;-74
2022/02/20 13:00:11;;;;;;;1.40;0.73;;;10.40;49.60;;;;;;4910741;29;20302;-76
2022/02/20 13:02:44;;;;;;;1.35;0.73;;;10.50;49.60;;;;;;4909697;29;20250;-75